Terminal Aerodrome Forecast
Issued by NWS

Home | Current Version | Previous Version | Text Only | Print | Product List | Glossary On
Versions: 1 2 3 4 5 6 7 8 9 10 11 12 13 14 15 16 17 18 19 20
000
FTUS45 KSLC 251923 AAA
TAFPVU
TAF AMD
KPVU 251923Z 2519/2618 33011KT P6SM VCSH SCT030 BKN060
     FM252000 33010KT P6SM -SHRA BKN030 OVC050
     FM252200 29008KT P6SM VCSH SCT030 BKN060
     FM260200 32006KT P6SM BKN060
     FM261100 VRB04KT P6SM SKC=

USA.gov is the U.S. government's official web portal to all federal, state and local government web resources and services.